Página principal
METAR-TAF:

METAR-TAF

Aeroportos :

Kosrae, Micronésia

latitude: 05-21N, longitude: 162-57E, altura: 3 m

Observação actual do tempo

O boletim foi feito há 36 minutos, às 23:50 UTC
Vento 14 kt de es-nordeste
Temperatura 31°C
Humidade 71%
Pressão 1009 hPa
Visibilidade: 16.1 km
Nuvens dispersasa uma altura de 1600 ft, Cumulonimbus.
Nuvens fragmentadasa uma altura de 13000 ft
Encobertoa uma altura de 30000 ft

METAR: PTSA 252350Z 06014KT 10SM SCT016CB BKN130 OVC300 31/25 A2980 RMK CB SW AND N MOV W

Hora: 11:26 (00:26 UTC)

Previsão

O boletim foi feito há 56 minutos, às 23:30 UTC
Previsão válida de 26 às 00 UTC a 26 às 24 UTC
Vento 10 kt de es-nordeste
Visibilidade: 10 km
Poucas nuvensa uma altura de 1600 ft
Nuvens dispersasa uma altura de 4000 ft
Nuvens fragmentadasa uma altura de 14000 ft
aguaceiros nas vizinhanças

TAF: PTSA 252330Z 2600/2624 07010KT P6SM VCSH FEW016 SCT040 BKN140

Observações e previsões do tempo de mais de 4000 aeroportos (mensagens METAR e TAF).

As estações disponíveis são os pontos amarelos e vermelhos sobre o mapa.

Mova o rato sobre o mapa para ver o nome da estação.

Depois clique no ponto para visualizar as observações e previsões meteorológicas.

Para alterar o mapa : clique nos botões verdes com uma cruz preta para aumentar o zoom; no botão verde com uma pitada de zoom; ou nas setas verdes para mapas adjacentes.


METAR-TAF: